sensor_id;sensor_type;location;lat;lon;timestamp;pressure;altitude;pressure_sealevel;temperature;humidity
14269;BME280;7218;51.480;7.006;2023-04-05T00:01:23;101401.78;;;7.08;51.94
14269;BME280;7218;51.480;7.006;2023-04-05T00:03:50;101394.84;;;7.02;50.77
14269;BME280;7218;51.480;7.006;2023-04-05T00:06:18;101392.13;;;6.95;50.82
14269;BME280;7218;51.480;7.006;2023-04-05T00:08:46;101392.22;;;7.01;51.49
14269;BME280;7218;51.480;7.006;2023-04-05T00:11:14;101391.31;;;6.99;51.96
14269;BME280;7218;51.480;7.006;2023-04-05T00:13:40;101392.09;;;6.93;52.40
14269;BME280;7218;51.480;7.006;2023-04-05T00:16:07;101387.69;;;6.87;52.57
14269;BME280;7218;51.480;7.006;2023-04-05T00:18:35;101389.50;;;6.91;52.13
14269;BME280;7218;51.480;7.006;2023-04-05T00:21:02;101390.28;;;6.86;51.91
14269;BME280;7218;51.480;7.006;2023-04-05T00:23:29;101391.00;;;6.74;53.68
14269;BME280;7218;51.480;7.006;2023-04-05T00:26:01;101397.13;;;6.81;53.67
14269;BME280;7218;51.480;7.006;2023-04-05T00:28:28;101393.56;;;6.74;54.62
14269;BME280;7218;51.480;7.006;2023-04-05T00:30:54;101392.72;;;6.75;54.83
14269;BME280;7218;51.480;7.006;2023-04-05T00:33:21;101393.69;;;6.83;55.17
14269;BME280;7218;51.480;7.006;2023-04-05T00:35:48;101388.56;;;6.86;54.31
14269;BME280;7218;51.480;7.006;2023-04-05T00:38:15;101389.22;;;6.70;54.40
14269;BME280;7218;51.480;7.006;2023-04-05T00:40:42;101378.81;;;6.67;55.15
14269;BME280;7218;51.480;7.006;2023-04-05T00:43:08;101382.19;;;6.63;55.41
14269;BME280;7218;51.480;7.006;2023-04-05T00:45:35;101369.94;;;6.52;54.82
14269;BME280;7218;51.480;7.006;2023-04-05T00:48:02;101370.03;;;6.59;56.10
14269;BME280;7218;51.480;7.006;2023-04-05T00:50:28;101372.69;;;6.64;54.78
14269;BME280;7218;51.480;7.006;2023-04-05T00:52:57;101368.50;;;6.72;55.05
14269;BME280;7218;51.480;7.006;2023-04-05T00:55:24;101363.88;;;6.51;55.12
14269;BME280;7218;51.480;7.006;2023-04-05T00:57:51;101362.94;;;6.46;56.11
14269;BME280;7218;51.480;7.006;2023-04-05T01:00:20;101366.19;;;6.33;56.10
14269;BME280;7218;51.480;7.006;2023-04-05T01:02:48;101368.78;;;6.31;56.09
14269;BME280;7218;51.480;7.006;2023-04-05T01:05:25;101372.31;;;6.36;57.06
14269;BME280;7218;51.480;7.006;2023-04-05T01:08:03;101372.31;;;6.36;56.57
14269;BME280;7218;51.480;7.006;2023-04-05T01:10:35;101368.56;;;6.19;57.70
14269;BME280;7218;51.480;7.006;2023-04-05T01:13:03;101360.63;;;6.09;57.26
14269;BME280;7218;51.480;7.006;2023-04-05T01:15:31;101372.69;;;6.07;57.07
14269;BME280;7218;51.480;7.006;2023-04-05T01:17:57;101364.22;;;6.18;57.47
14269;BME280;7218;51.480;7.006;2023-04-05T01:20:26;101360.94;;;6.27;57.11
14269;BME280;7218;51.480;7.006;2023-04-05T01:23:13;101356.75;;;6.38;57.18
14269;BME280;7218;51.480;7.006;2023-04-05T01:25:56;101349.75;;;6.31;57.31
14269;BME280;7218;51.480;7.006;2023-04-05T01:28:39;101349.00;;;6.38;57.45
14269;BME280;7218;51.480;7.006;2023-04-05T01:31:14;101343.75;;;6.33;57.62
14269;BME280;7218;51.480;7.006;2023-04-05T01:33:50;101348.44;;;6.01;58.39
14269;BME280;7218;51.480;7.006;2023-04-05T01:36:26;101342.53;;;6.10;58.90
14269;BME280;7218;51.480;7.006;2023-04-05T01:38:56;101342.47;;;6.05;59.32
14269;BME280;7218;51.480;7.006;2023-04-05T01:41:23;101347.09;;;5.75;59.64
14269;BME280;7218;51.480;7.006;2023-04-05T01:43:50;101353.00;;;5.68;61.21
14269;BME280;7218;51.480;7.006;2023-04-05T01:46:18;101343.81;;;5.85;60.67
14269;BME280;7218;51.480;7.006;2023-04-05T01:48:45;101348.78;;;5.72;60.45
14269;BME280;7218;51.480;7.006;2023-04-05T01:51:11;101343.63;;;5.75;60.93
14269;BME280;7218;51.480;7.006;2023-04-05T01:53:37;101340.47;;;5.89;60.17
14269;BME280;7218;51.480;7.006;2023-04-05T01:56:04;101344.50;;;5.75;60.82
14269;BME280;7218;51.480;7.006;2023-04-05T01:58:31;101343.63;;;5.75;61.65
14269;BME280;7218;51.480;7.006;2023-04-05T02:00:57;101335.94;;;5.79;60.87
14269;BME280;7218;51.480;7.006;2023-04-05T02:03:25;101343.06;;;5.89;61.26
14269;BME280;7218;51.480;7.006;2023-04-05T02:05:52;101337.69;;;5.80;61.40
14269;BME280;7218;51.480;7.006;2023-04-05T02:08:18;101329.09;;;5.81;61.11
14269;BME280;7218;51.480;7.006;2023-04-05T02:10:45;101335.00;;;5.74;61.32
14269;BME280;7218;51.480;7.006;2023-04-05T02:13:12;101332.28;;;5.68;61.51
14269;BME280;7218;51.480;7.006;2023-04-05T02:15:38;101333.94;;;5.63;61.16
14269;BME280;7218;51.480;7.006;2023-04-05T02:18:05;101329.44;;;5.53;62.45
14269;BME280;7218;51.480;7.006;2023-04-05T02:20:33;101328.72;;;5.60;62.76
14269;BME280;7218;51.480;7.006;2023-04-05T02:22:59;101336.00;;;5.33;63.35
14269;BME280;7218;51.480;7.006;2023-04-05T02:25:26;101332.63;;;5.37;63.90
14269;BME280;7218;51.480;7.006;2023-04-05T02:27:53;101325.84;;;5.45;63.73
14269;BME280;7218;51.480;7.006;2023-04-05T02:30:19;101322.38;;;5.43;63.90
14269;BME280;7218;51.480;7.006;2023-04-05T02:32:46;101322.41;;;5.44;63.54
14269;BME280;7218;51.480;7.006;2023-04-05T02:35:12;101318.09;;;5.45;64.37
14269;BME280;7218;51.480;7.006;2023-04-05T02:37:42;101320.97;;;5.60;63.35
14269;BME280;7218;51.480;7.006;2023-04-05T02:40:11;101327.03;;;5.63;63.02
14269;BME280;7218;51.480;7.006;2023-04-05T02:42:39;101321.34;;;5.35;63.32
14269;BME280;7218;51.480;7.006;2023-04-05T02:45:06;101323.94;;;5.35;64.05
14269;BME280;7218;51.480;7.006;2023-04-05T02:47:33;101328.03;;;5.24;64.40
14269;BME280;7218;51.480;7.006;2023-04-05T02:50:00;101324.56;;;5.22;64.90
14269;BME280;7218;51.480;7.006;2023-04-05T02:52:26;101319.34;;;5.20;64.83
14269;BME280;7218;51.480;7.006;2023-04-05T02:54:54;101321.34;;;5.35;64.76
14269;BME280;7218;51.480;7.006;2023-04-05T02:57:20;101327.31;;;5.31;65.14
14269;BME280;7218;51.480;7.006;2023-04-05T02:59:47;101328.00;;;5.20;64.69
14269;BME280;7218;51.480;7.006;2023-04-05T03:02:13;101327.81;;;5.11;65.08
14269;BME280;7218;51.480;7.006;2023-04-05T03:04:40;101325.16;;;5.07;65.34
14269;BME280;7218;51.480;7.006;2023-04-05T03:07:09;101330.44;;;5.13;65.45
14269;BME280;7218;51.480;7.006;2023-04-05T03:09:38;101322.41;;;4.99;66.08
14269;BME280;7218;51.480;7.006;2023-04-05T03:12:07;101322.53;;;5.05;66.10
14269;BME280;7218;51.480;7.006;2023-04-05T03:14:34;101320.72;;;5.01;66.27
14269;BME280;7218;51.480;7.006;2023-04-05T03:17:00;101320.78;;;5.04;66.16
14269;BME280;7218;51.480;7.006;2023-04-05T03:19:27;101317.25;;;5.01;65.79
14269;BME280;7218;51.480;7.006;2023-04-05T03:21:54;101303.13;;;4.82;67.04
14269;BME280;7218;51.480;7.006;2023-04-05T03:24:22;101318.66;;;4.85;67.49
14269;BME280;7218;51.480;7.006;2023-04-05T03:26:48;101311.94;;;4.93;67.10
14269;BME280;7218;51.480;7.006;2023-04-05T03:29:16;101309.34;;;4.93;66.81
14269;BME280;7218;51.480;7.006;2023-04-05T03:31:43;101311.66;;;4.78;68.06
14269;BME280;7218;51.480;7.006;2023-04-05T03:34:10;101318.47;;;4.76;67.80
14269;BME280;7218;51.480;7.006;2023-04-05T03:36:36;101312.38;;;4.72;68.27
14269;BME280;7218;51.480;7.006;2023-04-05T03:39:07;101313.13;;;4.68;69.06
14269;BME280;7218;51.480;7.006;2023-04-05T03:41:33;101308.94;;;4.73;67.53
14269;BME280;7218;51.480;7.006;2023-04-05T03:44:00;101308.88;;;4.70;68.18
14269;BME280;7218;51.480;7.006;2023-04-05T03:46:28;101307.38;;;4.80;68.28
14269;BME280;7218;51.480;7.006;2023-04-05T03:48:55;101311.50;;;4.72;68.68
14269;BME280;7218;51.480;7.006;2023-04-05T03:51:21;101311.28;;;4.61;69.34
14269;BME280;7218;51.480;7.006;2023-04-05T03:53:48;101311.38;;;4.66;69.27
14269;BME280;7218;51.480;7.006;2023-04-05T03:56:15;101313.09;;;4.65;69.37
14269;BME280;7218;51.480;7.006;2023-04-05T03:58:42;101313.19;;;4.70;69.13
14269;BME280;7218;51.480;7.006;2023-04-05T04:01:08;101301.72;;;4.57;69.52
14269;BME280;7218;51.480;7.006;2023-04-05T04:03:37;101294.09;;;4.62;70.03
14269;BME280;7218;51.480;7.006;2023-04-05T04:06:04;101302.63;;;4.59;69.77
14269;BME280;7218;51.480;7.006;2023-04-05T04:08:30;101297.41;;;4.56;69.85
14269;BME280;7218;51.480;7.006;2023-04-05T04:10:57;101307.78;;;4.58;69.90
14269;BME280;7218;51.480;7.006;2023-04-05T04:13:24;101295.38;;;4.42;69.98
14269;BME280;7218;51.480;7.006;2023-04-05T04:15:51;101305.69;;;4.42;70.60
14269;BME280;7218;51.480;7.006;2023-04-05T04:18:17;101301.41;;;4.44;70.43
14269;BME280;7218;51.480;7.006;2023-04-05T04:20:45;101300.13;;;4.62;69.96
14269;BME280;7218;51.480;7.006;2023-04-05T04:23:12;101298.00;;;4.45;69.95
14269;BME280;7218;51.480;7.006;2023-04-05T04:25:39;101304.81;;;4.41;70.66
14269;BME280;7218;51.480;7.006;2023-04-05T04:28:06;101305.59;;;4.39;71.05
14269;BME280;7218;51.480;7.006;2023-04-05T04:30:33;101300.34;;;4.34;70.26
14269;BME280;7218;51.480;7.006;2023-04-05T04:33:00;101300.44;;;4.39;69.62
14269;BME280;7218;51.480;7.006;2023-04-05T04:35:29;101297.94;;;4.42;69.61
14269;BME280;7218;51.480;7.006;2023-04-05T04:38:01;101304.13;;;4.50;69.78
14269;BME280;7218;51.480;7.006;2023-04-05T04:40:29;101297.22;;;4.49;70.10
14269;BME280;7218;51.480;7.006;2023-04-05T04:42:56;101297.22;;;4.47;69.88
14269;BME280;7218;51.480;7.006;2023-04-05T04:45:24;101292.78;;;4.42;70.31
14269;BME280;7218;51.480;7.006;2023-04-05T04:47:51;101294.44;;;4.40;70.37
14269;BME280;7218;51.480;7.006;2023-04-05T04:50:19;101301.47;;;4.45;70.03
14269;BME280;7218;51.480;7.006;2023-04-05T04:52:46;101296.16;;;4.39;69.77
14269;BME280;7218;51.480;7.006;2023-04-05T04:55:14;101302.38;;;4.47;69.82
14269;BME280;7218;51.480;7.006;2023-04-05T04:57:41;101303.16;;;4.43;69.70
14269;BME280;7218;51.480;7.006;2023-04-05T05:00:09;101296.19;;;4.41;69.58
14269;BME280;7218;51.480;7.006;2023-04-05T05:02:38;101299.38;;;4.29;69.78
14269;BME280;7218;51.480;7.006;2023-04-05T05:05:05;101304.63;;;4.32;69.87
14269;BME280;7218;51.480;7.006;2023-04-05T05:07:32;101307.00;;;4.23;69.70
14269;BME280;7218;51.480;7.006;2023-04-05T05:09:58;101305.41;;;4.29;69.80
14269;BME280;7218;51.480;7.006;2023-04-05T05:12:27;101305.56;;;4.36;69.89
14269;BME280;7218;51.480;7.006;2023-04-05T05:14:55;101309.00;;;4.36;69.83
14269;BME280;7218;51.480;7.006;2023-04-05T05:17:22;101307.34;;;4.40;69.98
14269;BME280;7218;51.480;7.006;2023-04-05T05:19:48;101301.16;;;4.31;69.94
14269;BME280;7218;51.480;7.006;2023-04-05T05:22:15;101299.69;;;4.43;69.82
14269;BME280;7218;51.480;7.006;2023-04-05T05:24:42;101297.13;;;4.43;70.05
14269;BME280;7218;51.480;7.006;2023-04-05T05:27:09;101299.84;;;4.50;69.77
14269;BME280;7218;51.480;7.006;2023-04-05T05:29:37;101299.78;;;4.47;69.86
14269;BME280;7218;51.480;7.006;2023-04-05T05:32:03;101301.47;;;4.45;70.11
14269;BME280;7218;51.480;7.006;2023-04-05T05:34:31;101306.56;;;4.44;70.33
14269;BME280;7218;51.480;7.006;2023-04-05T05:36:58;101303.41;;;4.55;69.71
14269;BME280;7218;51.480;7.006;2023-04-05T05:39:25;101306.16;;;4.63;69.65
14269;BME280;7218;51.480;7.006;2023-04-05T05:41:51;101306.16;;;4.64;69.27
14269;BME280;7218;51.480;7.006;2023-04-05T05:44:18;101294.34;;;4.75;68.73
14269;BME280;7218;51.480;7.006;2023-04-05T05:46:46;101302.38;;;4.88;68.36
14269;BME280;7218;51.480;7.006;2023-04-05T05:49:12;101297.78;;;4.74;67.75
14269;BME280;7218;51.480;7.006;2023-04-05T05:51:39;101304.09;;;4.89;67.75
14269;BME280;7218;51.480;7.006;2023-04-05T05:54:05;101299.78;;;4.89;67.57
14269;BME280;7218;51.480;7.006;2023-04-05T05:56:32;101303.44;;;4.99;67.61
14269;BME280;7218;51.480;7.006;2023-04-05T05:58:58;101301.78;;;5.02;67.18
14269;BME280;7218;51.480;7.006;2023-04-05T06:01:25;101304.47;;;5.07;67.22
14269;BME280;7218;51.480;7.006;2023-04-05T06:03:55;101300.50;;;5.26;67.25
14269;BME280;7218;51.480;7.006;2023-04-05T06:06:21;101296.88;;;5.16;66.93
14269;BME280;7218;51.480;7.006;2023-04-05T06:08:48;101295.50;;;5.35;66.49
14269;BME280;7218;51.480;7.006;2023-04-05T06:11:16;101296.63;;;5.50;65.87
14269;BME280;7218;51.480;7.006;2023-04-05T06:13:43;101291.44;;;5.49;65.70
14269;BME280;7218;51.480;7.006;2023-04-05T06:16:09;101292.50;;;5.60;65.69
14269;BME280;7218;51.480;7.006;2023-04-05T06:18:36;101284.72;;;5.60;64.99
14269;BME280;7218;51.480;7.006;2023-04-05T06:21:04;101287.53;;;5.72;64.89
14269;BME280;7218;51.480;7.006;2023-04-05T06:23:30;101285.81;;;5.74;64.57
14269;BME280;7218;51.480;7.006;2023-04-05T06:25:57;101285.81;;;5.74;64.18
14269;BME280;7218;51.480;7.006;2023-04-05T06:28:23;101284.97;;;5.75;63.85
14269;BME280;7218;51.480;7.006;2023-04-05T06:30:50;101287.00;;;5.93;63.32
14269;BME280;7218;51.480;7.006;2023-04-05T06:33:16;101288.84;;;5.98;62.29
14269;BME280;7218;51.480;7.006;2023-04-05T06:35:43;101287.28;;;6.10;62.21
14269;BME280;7218;51.480;7.006;2023-04-05T06:38:11;101279.75;;;6.28;61.11
14269;BME280;7218;51.480;7.006;2023-04-05T06:40:37;101286.69;;;6.27;61.35
14269;BME280;7218;51.480;7.006;2023-04-05T06:43:04;101282.47;;;6.35;60.52
14269;BME280;7218;51.480;7.006;2023-04-05T06:45:30;101277.38;;;6.41;60.13
14269;BME280;7218;51.480;7.006;2023-04-05T06:47:57;101279.22;;;6.50;59.54
14269;BME280;7218;51.480;7.006;2023-04-05T06:50:23;101276.75;;;6.59;59.11
14269;BME280;7218;51.480;7.006;2023-04-05T06:52:50;101273.47;;;6.74;58.27
14269;BME280;7218;51.480;7.006;2023-04-05T06:55:18;101279.69;;;6.88;57.22
14269;BME280;7218;51.480;7.006;2023-04-05T06:57:44;101281.44;;;6.89;57.44
14269;BME280;7218;51.480;7.006;2023-04-05T07:00:12;101278.97;;;7.00;56.88
14269;BME280;7218;51.480;7.006;2023-04-05T07:02:41;101280.72;;;7.04;56.55
14269;BME280;7218;51.480;7.006;2023-04-05T07:05:08;101277.50;;;7.24;56.18
14269;BME280;7218;51.480;7.006;2023-04-05T07:07:37;101281.94;;;7.38;56.00
14269;BME280;7218;51.480;7.006;2023-04-05T07:10:05;101278.50;;;7.39;55.40
14269;BME280;7218;51.480;7.006;2023-04-05T07:12:33;101273.34;;;7.40;54.37
14269;BME280;7218;51.480;7.006;2023-04-05T07:15:00;101271.66;;;7.45;54.51
14269;BME280;7218;51.480;7.006;2023-04-05T07:17:26;101272.69;;;7.65;54.14
14269;BME280;7218;51.480;7.006;2023-04-05T07:19:53;101266.75;;;7.77;53.85
14269;BME280;7218;51.480;7.006;2023-04-05T07:22:19;101260.75;;;7.86;53.18
14269;BME280;7218;51.480;7.006;2023-04-05T07:24:46;101264.25;;;7.94;53.20
14269;BME280;7218;51.480;7.006;2023-04-05T07:27:12;101266.09;;;8.10;52.78
14269;BME280;7218;51.480;7.006;2023-04-05T07:29:40;101269.66;;;8.21;52.34
14269;BME280;7218;51.480;7.006;2023-04-05T07:32:08;101269.72;;;8.30;52.57
14269;BME280;7218;51.480;7.006;2023-04-05T07:34:35;101274.91;;;8.30;51.11
14269;BME280;7218;51.480;7.006;2023-04-05T07:37:04;101264.63;;;8.50;51.06
14269;BME280;7218;51.480;7.006;2023-04-05T07:39:31;101267.22;;;8.53;51.28
14269;BME280;7218;51.480;7.006;2023-04-05T07:41:57;101271.59;;;8.58;50.01
14269;BME280;7218;51.480;7.006;2023-04-05T07:44:24;101261.25;;;8.77;49.92
14269;BME280;7218;51.480;7.006;2023-04-05T07:46:52;101264.81;;;8.98;49.07
14269;BME280;7218;51.480;7.006;2023-04-05T07:49:23;101269.16;;;8.99;47.70
14269;BME280;7218;51.480;7.006;2023-04-05T07:51:53;101263.13;;;9.14;47.91
14269;BME280;7218;51.480;7.006;2023-04-05T07:54:19;101268.31;;;9.17;46.94
14269;BME280;7218;51.480;7.006;2023-04-05T07:56:46;101272.69;;;9.20;46.19
14269;BME280;7218;51.480;7.006;2023-04-05T07:59:13;101263.16;;;9.29;45.80
14269;BME280;7218;51.480;7.006;2023-04-05T08:01:40;101264.84;;;9.18;46.01
14269;BME280;7218;51.480;7.006;2023-04-05T08:04:08;101258.84;;;9.45;45.32
14269;BME280;7218;51.480;7.006;2023-04-05T08:06:34;101266.63;;;9.62;44.99
14269;BME280;7218;51.480;7.006;2023-04-05T08:09:01;101260.56;;;9.47;43.16
14269;BME280;7218;51.480;7.006;2023-04-05T08:11:29;101263.19;;;9.66;42.08
14269;BME280;7218;51.480;7.006;2023-04-05T08:13:57;101261.44;;;9.86;41.16
14269;BME280;7218;51.480;7.006;2023-04-05T08:16:23;101265.78;;;9.93;41.35
14269;BME280;7218;51.480;7.006;2023-04-05T08:18:50;101260.56;;;9.99;40.14
14269;BME280;7218;51.480;7.006;2023-04-05T08:21:18;101257.94;;;10.08;38.65
14269;BME280;7218;51.480;7.006;2023-04-05T08:23:44;101258.78;;;10.13;39.01
14269;BME280;7218;51.480;7.006;2023-04-05T08:26:11;101250.09;;;10.34;38.40
14269;BME280;7218;51.480;7.006;2023-04-05T08:28:37;101262.25;;;10.33;38.86
14269;BME280;7218;51.480;7.006;2023-04-05T08:31:04;101260.44;;;10.57;37.97
14269;BME280;7218;51.480;7.006;2023-04-05T08:33:30;101262.28;;;10.30;38.15
14269;BME280;7218;51.480;7.006;2023-04-05T08:36:02;101258.81;;;10.22;37.83
14269;BME280;7218;51.480;7.006;2023-04-05T08:38:30;101256.13;;;10.44;37.55
14269;BME280;7218;51.480;7.006;2023-04-05T08:41:06;101254.31;;;10.67;37.24
14269;BME280;7218;51.480;7.006;2023-04-05T08:43:42;101244.59;;;10.98;36.86
14269;BME280;7218;51.480;7.006;2023-04-05T08:46:13;101249.59;;;11.33;36.50
14269;BME280;7218;51.480;7.006;2023-04-05T08:48:40;101252.97;;;11.50;36.58
14269;BME280;7218;51.480;7.006;2023-04-05T08:51:07;101246.72;;;11.66;35.71
14269;BME280;7218;51.480;7.006;2023-04-05T08:53:35;101249.19;;;11.86;34.87
14269;BME280;7218;51.480;7.006;2023-04-05T08:56:02;101246.97;;;11.33;35.46
14269;BME280;7218;51.480;7.006;2023-04-05T08:58:30;101248.19;;;10.78;36.69
14269;BME280;7218;51.480;7.006;2023-04-05T09:00:58;101248.88;;;11.08;34.93
14269;BME280;7218;51.480;7.006;2023-04-05T09:03:35;101250.13;;;10.31;35.35
14269;BME280;7218;51.480;7.006;2023-04-05T09:06:06;101245.56;;;10.78;35.04
14269;BME280;7218;51.480;7.006;2023-04-05T09:08:37;101234.97;;;11.10;34.50
14269;BME280;7218;51.480;7.006;2023-04-05T09:11:03;101236.13;;;11.87;34.24
14269;BME280;7218;51.480;7.006;2023-04-05T09:13:30;101237.34;;;12.37;33.80
14269;BME280;7218;51.480;7.006;2023-04-05T09:15:57;101241.09;;;12.12;34.00
14269;BME280;7218;51.480;7.006;2023-04-05T09:18:26;101238.09;;;12.48;32.58
14269;BME280;7218;51.480;7.006;2023-04-05T09:20:55;101231.88;;;13.21;32.91
14269;BME280;7218;51.480;7.006;2023-04-05T09:23:22;101229.75;;;13.46;31.91
14269;BME280;7218;51.480;7.006;2023-04-05T09:25:50;101225.19;;;13.58;31.62
14269;BME280;7218;51.480;7.006;2023-04-05T09:28:16;101232.84;;;13.15;30.81
14269;BME280;7218;51.480;7.006;2023-04-05T09:30:44;101233.56;;;13.26;30.76
14269;BME280;7218;51.480;7.006;2023-04-05T09:33:15;101220.44;;;13.28;31.76
14269;BME280;7218;51.480;7.006;2023-04-05T09:35:43;101218.41;;;13.45;30.99
14269;BME280;7218;51.480;7.006;2023-04-05T09:38:10;101220.41;;;13.83;30.94
14269;BME280;7218;51.480;7.006;2023-04-05T09:40:40;101219.44;;;13.87;30.43
14269;BME280;7218;51.480;7.006;2023-04-05T09:43:09;101224.97;;;14.19;29.92
14269;BME280;7218;51.480;7.006;2023-04-05T09:45:38;101218.50;;;13.91;29.94
14269;BME280;7218;51.480;7.006;2023-04-05T09:48:06;101224.53;;;13.95;29.53
14269;BME280;7218;51.480;7.006;2023-04-05T09:50:32;101222.41;;;13.14;30.21
14269;BME280;7218;51.480;7.006;2023-04-05T09:53:07;101226.28;;;12.84;30.39
14269;BME280;7218;51.480;7.006;2023-04-05T09:55:34;101221.81;;;12.92;30.16
14269;BME280;7218;51.480;7.006;2023-04-05T09:58:01;101222.47;;;13.64;30.45
14269;BME280;7218;51.480;7.006;2023-04-05T10:00:29;101222.78;;;13.97;28.93
14269;BME280;7218;51.480;7.006;2023-04-05T10:02:56;101217.53;;;13.95;29.79
14269;BME280;7218;51.480;7.006;2023-04-05T10:05:24;101224.84;;;13.78;29.92
14269;BME280;7218;51.480;7.006;2023-04-05T10:07:53;101218.03;;;14.17;29.76
14269;BME280;7218;51.480;7.006;2023-04-05T10:10:21;101217.19;;;13.67;28.71
14269;BME280;7218;51.480;7.006;2023-04-05T10:12:49;101210.22;;;13.65;31.26
14269;BME280;7218;51.480;7.006;2023-04-05T10:15:16;101216.09;;;14.27;28.42
14269;BME280;7218;51.480;7.006;2023-04-05T10:17:48;101199.19;;;14.83;29.11
14269;BME280;7218;51.480;7.006;2023-04-05T10:20:18;101198.50;;;15.13;29.74
14269;BME280;7218;51.480;7.006;2023-04-05T10:22:58;101204.56;;;15.15;27.87
14269;BME280;7218;51.480;7.006;2023-04-05T10:25:33;101193.28;;;15.47;28.39
14269;BME280;7218;51.480;7.006;2023-04-05T10:28:03;101194.91;;;15.88;27.63
14269;BME280;7218;51.480;7.006;2023-04-05T10:30:33;101187.97;;;16.16;27.16
14269;BME280;7218;51.480;7.006;2023-04-05T10:33:10;101188.31;;;15.72;26.79
14269;BME280;7218;51.480;7.006;2023-04-05T10:35:45;101189.28;;;15.32;27.40
14269;BME280;7218;51.480;7.006;2023-04-05T10:38:19;101181.22;;;16.39;26.54
14269;BME280;7218;51.480;7.006;2023-04-05T10:40:48;101188.38;;;15.33;27.66
14269;BME280;7218;51.480;7.006;2023-04-05T10:43:20;101175.44;;;16.24;26.81
14269;BME280;7218;51.480;7.006;2023-04-05T10:45:51;101171.81;;;16.89;25.49
14269;BME280;7218;51.480;7.006;2023-04-05T10:48:27;101164.91;;;17.39;24.87
14269;BME280;7218;51.480;7.006;2023-04-05T10:50:59;101175.06;;;17.51;24.13
14269;BME280;7218;51.480;7.006;2023-04-05T10:53:26;101170.78;;;17.20;23.76
14269;BME280;7218;51.480;7.006;2023-04-05T10:55:56;101169.81;;;16.38;24.79
14269;BME280;7218;51.480;7.006;2023-04-05T10:58:23;101165.25;;;18.05;24.00
14269;BME280;7218;51.480;7.006;2023-04-05T11:00:51;101158.72;;;18.16;24.05
14269;BME280;7218;51.480;7.006;2023-04-05T11:03:43;101157.56;;;17.75;23.63
14269;BME280;7218;51.480;7.006;2023-04-05T11:06:23;101152.66;;;18.37;23.09
14269;BME280;7218;51.480;7.006;2023-04-05T11:08:53;101155.38;;;19.67;22.77
14269;BME280;7218;51.480;7.006;2023-04-05T11:11:22;101149.13;;;19.26;21.75
14269;BME280;7218;51.480;7.006;2023-04-05T11:13:50;101155.13;;;18.65;22.14
14269;BME280;7218;51.480;7.006;2023-04-05T11:16:17;101156.09;;;19.71;21.25
14269;BME280;7218;51.480;7.006;2023-04-05T11:18:49;101152.44;;;20.33;22.20
14269;BME280;7218;51.480;7.006;2023-04-05T11:21:21;101147.53;;;20.62;20.83
14269;BME280;7218;51.480;7.006;2023-04-05T11:24:05;101146.88;;;20.76;20.85
14269;BME280;7218;51.480;7.006;2023-04-05T11:26:54;101147.34;;;18.83;21.21
14269;BME280;7218;51.480;7.006;2023-04-05T11:29:46;101146.25;;;18.89;21.41
14269;BME280;7218;51.480;7.006;2023-04-05T11:32:15;101146.03;;;19.37;20.78
14269;BME280;7218;51.480;7.006;2023-04-05T11:34:43;101141.47;;;19.62;22.29
14269;BME280;7218;51.480;7.006;2023-04-05T11:37:10;101138.94;;;20.76;20.98
14269;BME280;7218;51.480;7.006;2023-04-05T11:39:37;101138.22;;;21.62;19.84
14269;BME280;7218;51.480;7.006;2023-04-05T11:42:08;101132.31;;;21.57;19.96
14269;BME280;7218;51.480;7.006;2023-04-05T11:44:41;101126.91;;;21.75;20.01
14269;BME280;7218;51.480;7.006;2023-04-05T11:47:08;101136.50;;;20.34;19.83
14269;BME280;7218;51.480;7.006;2023-04-05T11:49:36;101129.22;;;20.94;19.76
14269;BME280;7218;51.480;7.006;2023-04-05T11:52:12;101114.69;;;21.88;19.81
14269;BME280;7218;51.480;7.006;2023-04-05T11:54:39;101124.09;;;22.60;19.60
14269;BME280;7218;51.480;7.006;2023-04-05T11:57:11;101113.66;;;22.72;19.13
14269;BME280;7218;51.480;7.006;2023-04-05T11:59:39;101121.50;;;23.21;18.90
14269;BME280;7218;51.480;7.006;2023-04-05T12:02:05;101118.38;;;21.34;19.05
14269;BME280;7218;51.480;7.006;2023-04-05T12:04:33;101111.06;;;20.68;19.95
14269;BME280;7218;51.480;7.006;2023-04-05T12:07:17;101104.09;;;22.21;20.33
14269;BME280;7218;51.480;7.006;2023-04-05T12:10:07;101104.53;;;23.82;18.55
14269;BME280;7218;51.480;7.006;2023-04-05T12:12:36;101092.56;;;24.46;18.74
14269;BME280;7218;51.480;7.006;2023-04-05T12:15:05;101100.34;;;23.34;17.97
14269;BME280;7218;51.480;7.006;2023-04-05T12:17:39;101085.69;;;24.82;19.27
14269;BME280;7218;51.480;7.006;2023-04-05T12:20:07;101100.28;;;21.92;18.37
14269;BME280;7218;51.480;7.006;2023-04-05T12:22:35;101096.88;;;23.02;18.53
14269;BME280;7218;51.480;7.006;2023-04-05T12:25:02;101095.69;;;23.37;17.85
14269;BME280;7218;51.480;7.006;2023-04-05T12:27:29;101083.91;;;24.28;18.46
14269;BME280;7218;51.480;7.006;2023-04-05T12:30:10;101085.63;;;24.00;17.38
14269;BME280;7218;51.480;7.006;2023-04-05T12:32:44;101081.69;;;24.49;18.07
14269;BME280;7218;51.480;7.006;2023-04-05T12:35:12;101076.00;;;24.67;18.09
14269;BME280;7218;51.480;7.006;2023-04-05T12:37:40;101073.03;;;24.31;17.89
14269;BME280;7218;51.480;7.006;2023-04-05T12:40:08;101076.94;;;25.07;17.34
14269;BME280;7218;51.480;7.006;2023-04-05T12:42:36;101082.38;;;25.45;16.82
14269;BME280;7218;51.480;7.006;2023-04-05T12:45:04;101068.81;;;25.61;17.38
14269;BME280;7218;51.480;7.006;2023-04-05T12:47:34;101056.66;;;25.95;16.83
14269;BME280;7218;51.480;7.006;2023-04-05T12:50:12;101062.28;;;26.65;17.02
14269;BME280;7218;51.480;7.006;2023-04-05T12:52:55;101061.34;;;25.79;16.42
14269;BME280;7218;51.480;7.006;2023-04-05T12:55:22;101063.81;;;25.17;16.34
14269;BME280;7218;51.480;7.006;2023-04-05T12:57:53;101065.31;;;26.47;16.30
14269;BME280;7218;51.480;7.006;2023-04-05T13:00:20;101063.47;;;25.99;16.26
14269;BME280;7218;51.480;7.006;2023-04-05T13:02:50;101054.69;;;25.97;16.29
14269;BME280;7218;51.480;7.006;2023-04-05T13:05:19;101054.69;;;26.22;16.64
14269;BME280;7218;51.480;7.006;2023-04-05T13:07:45;101050.81;;;26.26;15.96
14269;BME280;7218;51.480;7.006;2023-04-05T13:10:14;101048.00;;;25.79;15.64
14269;BME280;7218;51.480;7.006;2023-04-05T13:12:40;101042.09;;;25.61;15.30
14269;BME280;7218;51.480;7.006;2023-04-05T13:15:08;101041.16;;;26.36;15.60